• Join FlightAware (Why Join?)
  • Login
  • US Flag 
04:46AM EDT


 

Airport Tracker/Info


-or-


 

Live Flight TrackerFlight Track Log ✈ FIV617 ✈ 13-Jun-2013 ✈ KJAX - KMIA

Flight Track Log - Related Links

Times and Time Zones

All times are in EDT time to prevent confusion due to time zone crossing. See the FIV617 flight status page for this flight to view local times or setup timezone preferences in your user account.

Time Position Orientation Groundspeed Altitude Reporting Facility
EDT Latitude Longitude Course Direction KTS MPH feet Rate Location/Type
04:07PM 30.4906 -81.7042 170° South 156 180 800  Level Jacksonville Center
04:08PM 30.4639 -81.7381 228° Southwest 227 261 3,100 3,480 Climbing Jacksonville Center
04:09PM 30.4031 -81.7269 171° South 275 316 6,900 3,600 Climbing Jacksonville Center
04:10PM 30.3794 -81.6453 109° East 294 338 10,500 3,000 Climbing Jacksonville Center
04:11PM 30.3081 -81.6028 153° Southeast 266 306 13,300 2,220 Climbing Jacksonville Center
04:12PM 30.2219 -81.5561 155° Southeast 297 342 15,000 1,380 Climbing Jacksonville Center
04:13PM 29.9838 -81.1734 170° South  Level FlightAware Approximate
04:13PM 30.1519 -81.4608 130° Southeast 334 384 16,100  Level Jacksonville Center
04:14PM 30.1047 -81.3486 116° Southeast 371 427 17,000 420 Climbing Jacksonville Center
04:15PM 30.0511 -81.2367 119° Southeast 386 444 17,000  Level Jacksonville Center
04:16PM 29.9628 -81.1808 151° Southeast 359 413 17,000  Level Jacksonville Center
04:17PM 29.8603 -81.1683 174° South 346 398 17,000  Level Jacksonville Center
04:18PM 29.7494 -81.1583 176° South 372 428 17,000 840 Level Jacksonville Center
04:19PM 29.6408 -81.1506 176° South 385 443 18,700 2,100 Climbing Jacksonville Center
04:20PM 29.5300 -81.1358 173° South 396 456 21,300 2,220 Climbing Jacksonville Center
04:21PM 29.4067 -81.1261 176° South 401 461 23,200 3,300 Climbing Jacksonville Center
04:22PM 29.2897 -81.1117 174° South 426 490 28,000 1,620 Climbing Jacksonville Center
04:24PM 29.0828 -81.0286 161° South 432 497 28,000  Level Miami Center
04:25PM 28.9611 -80.9814 161° South 445 512 28,000  Level Miami Center
04:26PM 28.8231 -80.9217 159° South 472 543 28,000  Level Miami Center
04:27PM 28.6994 -80.8747 162° South 472 543 28,000  Level Miami Center
04:28PM 28.5756 -80.8228 160° South 477 549 28,000  Level Miami Center
04:29PM 28.4539 -80.7739 161° South 477 549 28,000  Level Miami Center
04:30PM 28.3547 -80.7350 161° South 477 549 28,000  Level Miami Center
04:31PM 28.2186 -80.6808 161° South 477 549 28,000  Level Miami Center
04:32PM 28.0967 -80.6342 161° South 470 541 28,000  Level Miami Center
04:33PM 27.9706 -80.5900 163° South 470 541 28,000  Level Miami Center
04:34PM 27.8317 -80.5433 163° South 475 547 28,000  Level Miami Center
04:35PM 27.7056 -80.5017 164° South 475 547 28,000  Level Miami Center
04:36PM 27.5836 -80.4556 161° South 475 547 28,000 -240 Level Miami Center
04:37PM 27.4636 -80.4075 160° South 470 541 27,600 -1,500 Descending Miami Center
04:38PM 27.3436 -80.3569 159° South 465 535 25,100 -1,800 Descending Miami Center
04:39PM 27.2278 -80.3114 161° South 459 528 24,000 -600 Descending Miami Center
04:40PM 27.1164 -80.2614 158° South 442 509 23,900 -960 Descending Miami Center
04:41PM 27.0242 -80.1819 142° Southeast 419 482 22,100 -1,620 Descending Miami Center
04:42PM 26.9486 -80.1122 141° Southeast 409 471 20,700 -1,800 Descending Miami Center
04:43PM 26.8456 -80.0439 149° Southeast 393 452 18,600 -2,040 Descending Miami Center
04:44PM 26.7436 -80.0228 170° South 393 452 16,700 -2,280 Descending Miami Center
04:45PM 26.6350 -80.0292 183° South 372 428 14,100 -2,280 Descending Miami Center
04:45PM 26.5867 -80.0394 191° South 340 391 13,300 -1,620 Descending Miami Center
04:46PM 26.5450 -80.0406 181° South 358 412 12,500 -1,860 Descending Miami Center
04:46PM 26.4944 -80.0508 190° South 326 375 11,400 -1,500 Descending Miami Center
04:47PM 26.4569 -80.0475 175° South 324 373 11,000 -360 Descending Miami Center
04:47PM 26.4194 -80.0442 175° South 294 338 11,100  Climbing Miami Center
04:48PM 26.3739 -80.0358 171° South 307 353 11,000  Descending Miami Center
04:48PM 26.3258 -80.0300 174° South 301 346 11,100  Climbing Miami Center
04:49PM 26.2906 -80.0222 169° South 307 353 11,000 -120 Descending Miami Center
04:49PM 26.2364 -80.0161 174° South 309 356 11,000 -240 Level Miami Center
04:50PM 26.2156 -80.0108 167° South 307 353 10,800 -600 Descending Miami Center
04:50PM 26.1592 -80.0047 174° South 318 366 10,500 -1,020 Descending Miami Center
04:51PM 26.1281 -79.9969 167° South 313 360 9,800 -1,800 Descending Miami Center
04:51PM 26.0694 -80.0069 189° South 273 314 8,500 -1,800 Descending Miami Center
04:52PM 26.0525 -80.0111 192° South 300 345 8,000 -1,620 Descending Miami Center
04:52PM 26.0000 -80.0353 202° Southwest 275 316 6,900 -1,740 Descending Miami Center
04:53PM 25.9789 -80.0369 184° South 285 328 6,300 -1,980 Descending Miami Center
04:53PM 25.9283 -80.0542 197° South 248 285 4,900 -2,220 Descending Miami Center
04:54PM 25.9117 -80.0561 186° South 272 313 4,100 -1,920 Descending Miami Center
04:54PM 25.8550 -80.0706 193° South 249 287 3,000 -1,140 Descending Miami Center
04:55PM 25.8464 -80.0797 224° Southwest 260 299 3,000 120 Level Miami Center
04:55PM 25.8206 -80.1136 230° Southwest 243 280 3,100 -780 Climbing Miami Center
04:57PM 25.8019 -80.1961 256° West 209 241 1,700 -1,140 Descending Miami Center
04:57PM 25.8031 -80.2400 272° West 146 168 800 -1,140 Descending Miami Center
04:59PM 25.7954 -80.2901 273° West  Level Estimated
05:06PM 25.7954 -80.2901 106° East  Level Estimated
05:07PM 25.7954 -80.2901 90° East  Level Estimated